createdAt,value
2024-01-24T00:01:35.258Z,8.46
2024-01-24T00:04:08.590Z,8.49
2024-01-24T00:06:41.840Z,8.52
2024-01-24T00:09:14.852Z,8.58
2024-01-24T00:11:47.665Z,8.61
2024-01-24T00:14:22.429Z,8.67
2024-01-24T00:16:56.843Z,8.71
2024-01-24T00:19:29.810Z,8.75
2024-01-24T00:22:02.782Z,8.80
2024-01-24T00:24:35.800Z,8.87
2024-01-24T00:27:08.587Z,8.89
2024-01-24T00:29:42.842Z,8.91
2024-01-24T00:32:15.819Z,8.93
2024-01-24T00:34:48.604Z,9.01
2024-01-24T00:37:21.713Z,9.06
2024-01-24T00:39:54.465Z,9.10
2024-01-24T00:42:27.426Z,9.16
2024-01-24T00:45:01.636Z,9.16
2024-01-24T00:47:34.579Z,9.22
2024-01-24T00:50:08.641Z,9.29
2024-01-24T00:52:41.399Z,9.36
2024-01-24T00:55:14.280Z,9.37
2024-01-24T00:57:47.291Z,9.45
2024-01-24T01:00:22.218Z,9.49
2024-01-24T01:02:55.104Z,9.52
2024-01-24T01:05:27.948Z,9.59
2024-01-24T01:08:00.742Z,9.61
2024-01-24T01:10:35.289Z,9.64
2024-01-24T01:13:08.174Z,9.69
2024-01-24T01:15:42.625Z,9.75
2024-01-24T01:18:15.552Z,9.79
2024-01-24T01:20:48.329Z,9.85
2024-01-24T01:23:21.509Z,9.89
2024-01-24T01:25:54.947Z,9.93
2024-01-24T01:28:27.714Z,9.99
2024-01-24T01:31:01.903Z,10.05
2024-01-24T01:33:35.200Z,10.09
2024-01-24T01:36:17.861Z,10.13
2024-01-24T01:38:55.858Z,10.18
2024-01-24T01:41:28.693Z,10.19
2024-01-24T01:44:01.573Z,10.22
2024-01-24T01:46:35.748Z,10.32
2024-01-24T01:49:12.065Z,10.31
2024-01-24T01:51:46.826Z,10.38
2024-01-24T01:54:20.314Z,10.43
2024-01-24T01:56:53.303Z,10.52
2024-01-24T01:59:27.548Z,10.53
2024-01-24T02:02:03.452Z,10.60
2024-01-24T02:04:36.262Z,10.63
2024-01-24T02:07:09.356Z,10.66
2024-01-24T02:09:42.360Z,10.67
2024-01-24T02:12:15.387Z,10.73
2024-01-24T02:14:48.689Z,10.80
2024-01-24T02:17:22.794Z,10.83
2024-01-24T02:19:55.753Z,10.82
2024-01-24T02:22:28.859Z,10.86
2024-01-24T02:25:03.484Z,10.89
2024-01-24T02:27:36.432Z,10.96
2024-01-24T02:30:10.321Z,10.98
2024-01-24T02:32:43.386Z,11.00
2024-01-24T02:35:16.502Z,11.00
2024-01-24T02:37:49.531Z,11.07
2024-01-24T02:40:23.914Z,11.13
2024-01-24T02:42:57.080Z,11.20
2024-01-24T02:45:29.911Z,11.23
2024-01-24T02:48:03.116Z,11.23
2024-01-24T02:50:36.013Z,11.28
2024-01-24T02:53:10.124Z,11.35
2024-01-24T02:55:44.414Z,11.30
2024-01-24T02:58:17.777Z,11.36
2024-01-24T03:00:50.549Z,11.37
2024-01-24T03:03:24.246Z,11.33
2024-01-24T03:05:57.060Z,11.37
2024-01-24T03:08:30.161Z,11.35
2024-01-24T03:11:04.273Z,11.40
2024-01-24T03:13:37.307Z,11.38
2024-01-24T03:16:10.285Z,11.43
2024-01-24T03:18:43.708Z,11.48
2024-01-24T03:21:18.831Z,11.45
2024-01-24T03:23:52.096Z,11.46
2024-01-24T03:26:26.248Z,11.49
2024-01-24T03:28:59.163Z,11.53
2024-01-24T03:31:32.051Z,11.56
2024-01-24T03:34:05.001Z,11.56
2024-01-24T03:36:38.149Z,11.59
2024-01-24T03:39:12.246Z,11.59
2024-01-24T03:41:47.970Z,11.65
2024-01-24T03:44:20.911Z,11.62
2024-01-24T03:46:53.846Z,11.51
2024-01-24T03:49:26.771Z,11.41
2024-01-24T03:51:59.863Z,11.14
2024-01-24T03:54:32.832Z,10.84
2024-01-24T03:57:07.454Z,10.77
2024-01-24T03:59:40.307Z,10.76
2024-01-24T04:02:13.572Z,10.80
2024-01-24T04:04:46.503Z,10.83
2024-01-24T04:07:19.434Z,10.84
2024-01-24T04:09:54.715Z,10.79
2024-01-24T04:12:30.091Z,10.63
2024-01-24T04:15:03.710Z,10.51
2024-01-24T04:17:36.953Z,10.36
2024-01-24T04:20:10.630Z,10.27
2024-01-24T04:22:43.763Z,10.28
2024-01-24T04:25:17.013Z,10.34
2024-01-24T04:27:51.617Z,10.30
2024-01-24T04:30:24.490Z,10.14
2024-01-24T04:32:57.775Z,10.08
2024-01-24T04:35:30.565Z,10.18
2024-01-24T04:38:03.902Z,10.21
2024-01-24T04:40:36.829Z,10.33
2024-01-24T04:43:11.033Z,10.44
2024-01-24T04:45:43.997Z,10.55
2024-01-24T04:48:17.071Z,10.66
2024-01-24T04:50:50.184Z,10.70
2024-01-24T04:53:23.899Z,10.62
2024-01-24T04:55:57.140Z,10.61
2024-01-24T04:58:31.420Z,10.59
2024-01-24T05:01:04.788Z,10.55
2024-01-24T05:03:37.830Z,10.54
2024-01-24T05:06:11.579Z,10.53
2024-01-24T05:08:46.132Z,10.48
2024-01-24T05:11:18.976Z,10.35
2024-01-24T05:13:56.186Z,10.30
2024-01-24T05:16:31.013Z,10.32
2024-01-24T05:19:03.978Z,10.28
2024-01-24T05:21:42.084Z,10.40
2024-01-24T05:24:15.138Z,10.33
2024-01-24T05:26:48.017Z,10.42
2024-01-24T05:29:23.216Z,10.41
2024-01-24T05:31:56.305Z,10.42
2024-01-24T05:34:29.398Z,10.35
2024-01-24T05:37:02.254Z,10.27
2024-01-24T05:39:35.171Z,10.38
2024-01-24T05:42:09.040Z,10.41
2024-01-24T05:44:43.283Z,10.45
2024-01-24T05:47:16.968Z,10.50
2024-01-24T05:49:50.575Z,10.48
2024-01-24T05:52:27.160Z,10.48
2024-01-24T05:55:00.274Z,10.49
2024-01-24T05:57:36.183Z,10.46
2024-01-24T06:00:15.705Z,10.43
2024-01-24T06:02:51.686Z,10.52
2024-01-24T06:05:24.598Z,10.51
2024-01-24T06:07:57.702Z,10.38
2024-01-24T06:10:30.983Z,10.43
2024-01-24T06:13:03.892Z,10.45
2024-01-24T06:15:38.704Z,10.42
2024-01-24T06:18:11.890Z,10.47
2024-01-24T06:20:45.159Z,10.42
2024-01-24T06:23:18.021Z,10.51
2024-01-24T06:25:51.300Z,10.59
2024-01-24T06:28:24.429Z,10.53
2024-01-24T06:30:59.128Z,10.47
2024-01-24T06:33:33.238Z,10.47
2024-01-24T06:36:06.532Z,10.62
2024-01-24T06:38:39.372Z,10.68
2024-01-24T06:41:14.634Z,10.86
2024-01-24T06:43:48.595Z,10.87
2024-01-24T06:46:24.217Z,11.03
2024-01-24T06:48:57.230Z,11.03
2024-01-24T06:51:30.076Z,10.98
2024-01-24T06:54:03.601Z,11.03
2024-01-24T06:56:36.979Z,11.01
2024-01-24T06:59:09.900Z,11.04
2024-01-24T07:01:44.944Z,11.07
2024-01-24T07:04:18.254Z,11.10
2024-01-24T07:06:52.558Z,11.14
2024-01-24T07:09:25.445Z,11.10
2024-01-24T07:11:58.276Z,11.08
2024-01-24T07:14:31.182Z,11.13
2024-01-24T07:17:06.430Z,11.23
2024-01-24T07:19:40.086Z,11.16
2024-01-24T07:22:13.041Z,11.16
2024-01-24T07:24:47.342Z,11.14
2024-01-24T07:27:20.617Z,11.13
2024-01-24T07:29:53.584Z,10.93
2024-01-24T07:32:29.119Z,10.85
2024-01-24T07:35:03.759Z,10.57
2024-01-24T07:37:37.190Z,10.31
2024-01-24T07:40:12.016Z,10.22
2024-01-24T07:42:47.301Z,10.21
2024-01-24T07:45:20.992Z,10.21
2024-01-24T07:47:55.571Z,10.24
2024-01-24T07:50:28.931Z,10.27
2024-01-24T07:53:01.872Z,10.32
2024-01-24T07:55:41.675Z,10.40
2024-01-24T07:58:26.424Z,10.51
2024-01-24T08:00:59.520Z,10.53
2024-01-24T08:03:34.222Z,10.57
2024-01-24T08:06:07.521Z,10.60
2024-01-24T08:08:40.560Z,10.64
2024-01-24T08:11:13.249Z,10.70
2024-01-24T08:13:46.731Z,10.74
2024-01-24T08:16:20.229Z,10.82
2024-01-24T08:18:56.567Z,10.81
2024-01-24T08:21:30.008Z,10.83
2024-01-24T08:24:02.761Z,10.76
2024-01-24T08:26:35.814Z,10.79
2024-01-24T08:29:10.674Z,10.79
2024-01-24T08:31:45.366Z,10.81
2024-01-24T08:34:20.344Z,10.90
2024-01-24T08:36:53.748Z,10.89
2024-01-24T08:39:27.007Z,10.87
2024-01-24T08:41:59.844Z,10.94
2024-01-24T08:44:32.739Z,11.00
2024-01-24T08:47:05.988Z,10.94
2024-01-24T08:49:42.030Z,10.96
2024-01-24T08:52:15.233Z,10.96
2024-01-24T08:54:48.323Z,10.97
2024-01-24T08:57:21.070Z,11.00
2024-01-24T08:59:54.269Z,10.98
2024-01-24T09:02:28.143Z,11.00
2024-01-24T09:05:02.870Z,10.97
2024-01-24T09:07:36.053Z,10.97
2024-01-24T09:10:10.130Z,10.96
2024-01-24T09:12:43.144Z,10.92
2024-01-24T09:15:16.860Z,10.98
2024-01-24T09:17:49.799Z,10.99
2024-01-24T09:20:25.078Z,10.99
2024-01-24T09:22:58.343Z,10.98
2024-01-24T09:25:31.931Z,10.93
2024-01-24T09:28:05.764Z,10.91
2024-01-24T09:30:40.450Z,10.94
2024-01-24T09:33:13.674Z,10.95
2024-01-24T09:35:48.013Z,10.90
2024-01-24T09:38:21.431Z,10.95
2024-01-24T09:40:54.589Z,10.99
2024-01-24T09:43:31.093Z,10.93
2024-01-24T09:46:07.004Z,10.94
2024-01-24T09:48:41.340Z,10.90
2024-01-24T09:51:15.728Z,10.91
2024-01-24T09:53:52.969Z,10.91
2024-01-24T09:56:27.724Z,10.92
2024-01-24T09:59:00.660Z,10.95
2024-01-24T10:01:36.298Z,10.94
2024-01-24T10:04:09.502Z,10.87
2024-01-24T10:06:45.446Z,10.88
2024-01-24T10:09:20.407Z,10.87
2024-01-24T10:11:53.486Z,10.84
2024-01-24T10:14:26.365Z,10.88
2024-01-24T10:17:00.313Z,10.86
2024-01-24T10:19:34.258Z,10.89
2024-01-24T10:22:10.969Z,10.81
2024-01-24T10:24:44.152Z,10.90
2024-01-24T10:27:17.367Z,10.90
2024-01-24T10:29:50.411Z,10.92
2024-01-24T10:32:23.656Z,10.89
2024-01-24T10:34:56.741Z,10.87
2024-01-24T10:37:31.225Z,10.75
2024-01-24T10:40:07.253Z,10.44
2024-01-24T10:42:44.266Z,10.28
2024-01-24T10:45:20.188Z,10.22
2024-01-24T10:47:53.551Z,10.35
2024-01-24T10:50:27.096Z,10.35
2024-01-24T10:53:03.388Z,10.31
2024-01-24T10:55:38.626Z,10.26
2024-01-24T10:58:12.874Z,10.15
2024-01-24T11:00:45.883Z,10.10
2024-01-24T11:03:19.626Z,10.15
2024-01-24T11:05:57.534Z,9.94
2024-01-24T11:08:43.243Z,9.91
2024-01-24T11:11:22.742Z,9.79
2024-01-24T11:13:55.673Z,9.89
2024-01-24T11:16:32.065Z,9.81
2024-01-24T11:19:20.926Z,9.83
2024-01-24T11:21:54.899Z,9.84
2024-01-24T11:24:51.524Z,9.80
2024-01-24T11:27:31.338Z,9.68
2024-01-24T11:30:18.185Z,9.53
2024-01-24T11:33:00.198Z,9.43
2024-01-24T11:35:39.479Z,9.43
2024-01-24T11:38:37.028Z,9.39
2024-01-24T11:41:27.745Z,9.28
2024-01-24T11:44:00.862Z,9.21
2024-01-24T11:46:34.389Z,9.08
2024-01-24T11:49:08.264Z,9.05
2024-01-24T11:51:41.828Z,9.00
2024-01-24T11:54:15.687Z,8.95
2024-01-24T11:56:50.067Z,8.83
2024-01-24T11:59:23.237Z,8.80
2024-01-24T12:01:56.554Z,8.76
2024-01-24T12:04:29.772Z,8.71
2024-01-24T12:07:04.283Z,8.63
2024-01-24T12:09:37.515Z,8.62
2024-01-24T12:12:13.795Z,8.49
2024-01-24T12:14:47.061Z,8.42
2024-01-24T12:17:20.407Z,8.42
2024-01-24T12:19:53.823Z,8.45
2024-01-24T12:22:27.206Z,8.53
2024-01-24T12:25:08.432Z,8.65
2024-01-24T12:27:45.387Z,8.71
2024-01-24T12:30:19.876Z,8.77
2024-01-24T12:32:58.582Z,8.77
2024-01-24T12:35:33.002Z,8.86
2024-01-24T12:38:06.941Z,8.88
2024-01-24T12:40:39.794Z,9.04
2024-01-24T12:43:14.819Z,9.16
2024-01-24T12:45:48.032Z,9.28
2024-01-24T12:48:23.557Z,9.43
2024-01-24T12:50:57.834Z,9.59
2024-01-24T12:53:30.738Z,9.67
2024-01-24T12:56:03.909Z,9.93
2024-01-24T12:58:41.226Z,9.98
2024-01-24T13:01:14.445Z,10.00
2024-01-24T13:03:47.962Z,10.03
2024-01-24T13:06:21.289Z,10.03
2024-01-24T13:08:54.161Z,10.03
2024-01-24T13:11:27.150Z,9.99
2024-01-24T13:14:01.569Z,10.09
2024-01-24T13:16:34.481Z,10.13
2024-01-24T13:19:07.438Z,10.09
2024-01-24T13:21:43.088Z,9.99
2024-01-24T13:24:16.740Z,10.01
2024-01-24T13:26:49.969Z,10.02
2024-01-24T13:29:24.289Z,10.06
2024-01-24T13:31:57.656Z,10.02
2024-01-24T13:34:31.192Z,10.03
2024-01-24T13:37:04.348Z,10.02
2024-01-24T13:39:37.633Z,10.01
2024-01-24T13:42:11.022Z,9.95
2024-01-24T13:44:45.167Z,9.99
2024-01-24T13:47:18.063Z,9.94
2024-01-24T13:49:51.489Z,9.99
2024-01-24T13:52:25.392Z,10.05
2024-01-24T13:54:58.814Z,10.12
2024-01-24T13:57:31.998Z,10.15
2024-01-24T14:00:11.384Z,10.13
2024-01-24T14:02:44.670Z,10.10
2024-01-24T14:05:18.487Z,10.11
2024-01-24T14:07:52.471Z,10.11
2024-01-24T14:10:25.664Z,10.11
2024-01-24T14:12:58.643Z,10.14
2024-01-24T14:15:36.925Z,10.15
2024-01-24T14:18:12.922Z,10.11
2024-01-24T14:20:45.880Z,10.09
2024-01-24T14:23:18.739Z,10.12
2024-01-24T14:25:51.676Z,10.05
2024-01-24T14:28:24.690Z,10.03
2024-01-24T14:31:01.184Z,10.04
2024-01-24T14:33:35.288Z,10.10
2024-01-24T14:36:09.066Z,10.11
2024-01-24T14:38:41.862Z,10.09
2024-01-24T14:41:14.756Z,10.03
2024-01-24T14:43:47.551Z,10.08
2024-01-24T14:46:22.936Z,10.15
2024-01-24T14:48:55.895Z,10.11
2024-01-24T14:51:28.895Z,10.00
2024-01-24T14:54:01.981Z,10.04
2024-01-24T14:56:34.897Z,10.11
2024-01-24T14:59:07.739Z,10.10
2024-01-24T15:01:42.618Z,9.97
2024-01-24T15:04:15.969Z,10.04
2024-01-24T15:06:49.585Z,9.98
2024-01-24T15:09:22.451Z,10.02
2024-01-24T15:11:55.723Z,10.01
2024-01-24T15:14:28.585Z,10.01
2024-01-24T15:17:03.238Z,10.05
2024-01-24T15:19:36.219Z,9.95
2024-01-24T15:22:09.802Z,9.92
2024-01-24T15:24:42.888Z,9.93
2024-01-24T15:27:15.692Z,9.96
2024-01-24T15:29:48.824Z,9.92
2024-01-24T15:32:24.185Z,9.92
2024-01-24T15:34:57.746Z,9.91
2024-01-24T15:37:30.913Z,9.91
2024-01-24T15:40:08.335Z,9.80
2024-01-24T15:42:45.489Z,9.77
2024-01-24T15:45:22.513Z,9.75
2024-01-24T15:47:57.343Z,9.71
2024-01-24T15:50:30.661Z,9.65
2024-01-24T15:53:04.077Z,9.64
2024-01-24T15:55:37.062Z,9.59
2024-01-24T15:58:10.014Z,9.61
2024-01-24T16:00:43.063Z,9.67
2024-01-24T16:03:20.432Z,9.59
2024-01-24T16:05:53.398Z,9.66
2024-01-24T16:08:26.356Z,9.75
2024-01-24T16:11:00.762Z,9.70
2024-01-24T16:13:34.120Z,9.73
2024-01-24T16:16:08.374Z,9.70
2024-01-24T16:18:44.332Z,9.64
2024-01-24T16:21:17.207Z,9.68
2024-01-24T16:23:50.144Z,9.65
2024-01-24T16:26:23.141Z,9.65
2024-01-24T16:28:56.062Z,9.68
2024-01-24T16:31:29.459Z,9.76
2024-01-24T16:34:04.099Z,9.64
2024-01-24T16:36:37.462Z,9.69
2024-01-24T16:39:10.794Z,9.74
2024-01-24T16:41:43.772Z,9.70
2024-01-24T16:44:20.136Z,9.62
2024-01-24T16:46:53.183Z,9.60
2024-01-24T16:49:27.625Z,9.57
2024-01-24T16:52:00.604Z,9.66
2024-01-24T16:54:33.509Z,9.65
2024-01-24T16:57:06.288Z,9.66
2024-01-24T16:59:39.269Z,9.66
2024-01-24T17:02:13.039Z,9.64
2024-01-24T17:04:47.380Z,9.70
2024-01-24T17:07:21.479Z,9.61
2024-01-24T17:09:54.393Z,9.66
2024-01-24T17:12:29.167Z,9.67
2024-01-24T17:15:02.167Z,9.65
2024-01-24T17:17:34.849Z,9.63
2024-01-24T17:20:10.363Z,9.70
2024-01-24T17:22:43.364Z,9.61
2024-01-24T17:25:18.908Z,9.56
2024-01-24T17:27:51.813Z,9.68
2024-01-24T17:30:24.778Z,9.69
2024-01-24T17:32:59.365Z,9.66
2024-01-24T17:35:37.227Z,9.68
2024-01-24T17:38:11.032Z,9.67
2024-01-24T17:40:43.887Z,9.66
2024-01-24T17:43:17.580Z,9.69
2024-01-24T17:45:50.776Z,9.64
2024-01-24T17:48:23.906Z,9.61
2024-01-24T17:50:58.136Z,9.60
2024-01-24T17:53:33.539Z,9.56
2024-01-24T17:56:07.327Z,9.55
2024-01-24T17:58:40.257Z,9.55
2024-01-24T18:01:13.345Z,9.56
2024-01-24T18:03:46.633Z,9.60
2024-01-24T18:06:20.965Z,9.53
2024-01-24T18:08:53.911Z,9.54
2024-01-24T18:11:27.632Z,9.52
2024-01-24T18:14:00.430Z,9.52
2024-01-24T18:16:33.333Z,9.52
2024-01-24T18:19:06.326Z,9.52
2024-01-24T18:21:41.142Z,9.47
2024-01-24T18:24:14.555Z,9.44
2024-01-24T18:26:47.453Z,9.49
2024-01-24T18:29:20.438Z,9.38
2024-01-24T18:31:53.287Z,9.41
2024-01-24T18:34:27.756Z,9.40
2024-01-24T18:37:02.301Z,9.42
2024-01-24T18:39:35.507Z,9.38
2024-01-24T18:42:09.807Z,9.41
2024-01-24T18:44:43.944Z,9.39
2024-01-24T18:47:16.901Z,9.27
2024-01-24T18:49:50.025Z,9.31
2024-01-24T18:52:24.576Z,9.24
2024-01-24T18:54:57.515Z,9.28
2024-01-24T18:57:30.500Z,9.24
2024-01-24T19:00:05.769Z,9.32
2024-01-24T19:02:38.903Z,9.28
2024-01-24T19:05:19.209Z,9.34
2024-01-24T19:07:57.835Z,9.24
2024-01-24T19:10:31.129Z,9.18
2024-01-24T19:13:04.344Z,9.26
2024-01-24T19:15:37.532Z,9.17
2024-01-24T19:18:14.276Z,9.17
2024-01-24T19:20:50.285Z,9.13
2024-01-24T19:23:25.935Z,9.15
2024-01-24T19:25:58.733Z,9.18
2024-01-24T19:28:31.578Z,9.21
2024-01-24T19:31:05.137Z,9.18
2024-01-24T19:33:38.828Z,9.16
2024-01-24T19:36:13.792Z,9.14
2024-01-24T19:38:47.966Z,9.17
2024-01-24T19:41:22.420Z,9.15
2024-01-24T19:43:55.663Z,9.19
2024-01-24T19:46:28.679Z,9.17
2024-01-24T19:49:01.910Z,9.04
2024-01-24T19:51:36.950Z,9.03
2024-01-24T19:54:11.338Z,9.05
2024-01-24T19:56:45.181Z,9.06
2024-01-24T19:59:20.282Z,9.05
2024-01-24T20:01:53.627Z,9.03
2024-01-24T20:04:26.774Z,9.04
2024-01-24T20:07:00.286Z,9.05
2024-01-24T20:09:35.083Z,9.03
2024-01-24T20:12:08.776Z,9.11
2024-01-24T20:14:41.811Z,9.07
2024-01-24T20:17:16.459Z,8.96
2024-01-24T20:19:53.187Z,9.01
2024-01-24T20:22:27.164Z,9.07
2024-01-24T20:25:01.815Z,9.03
2024-01-24T20:27:35.330Z,8.99
2024-01-24T20:30:09.340Z,9.00
2024-01-24T20:32:48.901Z,8.97
2024-01-24T20:35:30.378Z,8.97
2024-01-24T20:38:03.736Z,8.97
2024-01-24T20:40:38.124Z,8.98
2024-01-24T20:43:12.571Z,9.02
2024-01-24T20:45:45.536Z,9.02
2024-01-24T20:48:18.471Z,8.99
2024-01-24T20:50:51.552Z,9.01
2024-01-24T20:53:24.673Z,8.97
2024-01-24T20:56:03.162Z,9.05
2024-01-24T20:58:36.230Z,8.88
2024-01-24T21:01:09.358Z,8.87
2024-01-24T21:03:44.486Z,8.92
2024-01-24T21:06:18.005Z,8.96
2024-01-24T21:08:51.239Z,8.90
2024-01-24T21:11:25.660Z,8.92
2024-01-24T21:13:59.046Z,8.93
2024-01-24T21:16:32.344Z,8.87
2024-01-24T21:19:05.380Z,8.91
2024-01-24T21:21:38.610Z,8.84
2024-01-24T21:24:13.387Z,8.84
2024-01-24T21:26:49.050Z,8.80
2024-01-24T21:29:22.098Z,8.78
2024-01-24T21:31:55.519Z,8.75
2024-01-24T21:34:30.280Z,8.78
2024-01-24T21:37:06.307Z,8.67
2024-01-24T21:39:39.528Z,8.66
2024-01-24T21:42:13.743Z,8.54
2024-01-24T21:44:46.648Z,8.52
2024-01-24T21:47:20.060Z,8.42
2024-01-24T21:49:53.490Z,8.46
2024-01-24T21:52:26.429Z,8.48
2024-01-24T21:54:59.442Z,8.43
2024-01-24T21:57:34.041Z,8.36
2024-01-24T22:00:09.236Z,8.37
2024-01-24T22:02:42.261Z,8.37
2024-01-24T22:05:15.095Z,8.31
2024-01-24T22:07:50.807Z,8.22
2024-01-24T22:10:24.587Z,8.24
2024-01-24T22:13:00.547Z,8.16
2024-01-24T22:15:33.708Z,8.16
2024-01-24T22:18:08.790Z,8.09
2024-01-24T22:20:42.760Z,8.04
2024-01-24T22:23:15.921Z,8.07
2024-01-24T22:25:48.790Z,8.04
2024-01-24T22:28:23.206Z,8.02
2024-01-24T22:30:56.798Z,7.99
2024-01-24T22:33:29.888Z,8.03
2024-01-24T22:36:02.957Z,8.00
2024-01-24T22:38:35.818Z,7.93
2024-01-24T22:41:08.857Z,7.94
2024-01-24T22:43:43.328Z,7.95
2024-01-24T22:46:16.386Z,7.87
2024-01-24T22:48:50.026Z,7.90
2024-01-24T22:51:23.899Z,7.85
2024-01-24T22:53:56.919Z,7.87
2024-01-24T22:56:30.082Z,7.84
2024-01-24T22:59:04.220Z,7.89
2024-01-24T23:01:37.209Z,7.93
2024-01-24T23:04:10.241Z,7.85
2024-01-24T23:06:43.244Z,7.88
2024-01-24T23:09:16.496Z,7.94
2024-01-24T23:11:49.437Z,8.01
2024-01-24T23:14:25.695Z,7.95
2024-01-24T23:16:58.825Z,7.93
2024-01-24T23:19:31.904Z,7.91
2024-01-24T23:22:05.960Z,7.85
2024-01-24T23:24:39.254Z,7.89
2024-01-24T23:27:12.522Z,7.84
2024-01-24T23:29:46.788Z,7.74
2024-01-24T23:32:21.288Z,7.73
2024-01-24T23:34:55.322Z,7.76
2024-01-24T23:37:28.296Z,7.70
2024-01-24T23:40:01.369Z,7.63
2024-01-24T23:42:34.426Z,7.65
2024-01-24T23:45:09.893Z,7.68
2024-01-24T23:47:43.443Z,7.69
2024-01-24T23:50:16.752Z,7.64
2024-01-24T23:52:49.978Z,7.68
2024-01-24T23:55:23.445Z,7.67
2024-01-24T23:57:56.790Z,7.72
